Time;durP1;ratioP1;P1;durP2;ratioP2;P2;SDS_P1;SDS_P2;PMS_P1;PMS_P2;Temp;Humidity;BMP_temperature;BMP_pressure;BME280_temperature;BME280_humidity;BME280_pressure;Samples;Min_cycle;Max_cycle;Signal;HPM_P1;HPM_P2
2021/08/13 00:01:40;;;;;;;10.70;7.30;;;17.60;99.90;;;;;;4986945;28;20686;-60
2021/08/13 00:04:07;;;;;;;8.37;7.60;;;17.50;99.90;;;;;;4996832;28;20508;-62
2021/08/13 00:06:37;;;;;;;8.07;6.13;;;17.50;99.90;;;;;;4997664;28;20471;-61
2021/08/13 00:09:04;;;;;;;5.97;5.40;;;17.50;99.90;;;;;;5004425;28;20485;-60
2021/08/13 00:11:31;;;;;;;7.50;6.80;;;17.60;99.90;;;;;;4995927;28;20505;-60
2021/08/13 00:13:58;;;;;;;9.60;6.70;;;17.70;99.90;;;;;;5001163;28;20555;-61
2021/08/13 00:16:25;;;;;;;8.70;6.50;;;17.60;99.90;;;;;;4998706;28;20435;-60
2021/08/13 00:18:52;;;;;;;8.13;7.30;;;17.60;99.90;;;;;;4994530;28;20649;-61
2021/08/13 00:21:19;;;;;;;9.10;6.87;;;17.70;99.90;;;;;;4998710;28;20551;-60
2021/08/13 00:23:46;;;;;;;7.27;6.67;;;17.50;99.90;;;;;;4998617;28;20439;-60
2021/08/13 00:26:12;;;;;;;7.73;6.93;;;17.50;99.90;;;;;;5000713;28;20822;-60
2021/08/13 00:28:40;;;;;;;7.73;6.13;;;17.50;99.90;;;;;;4998431;28;20474;-61
2021/08/13 00:31:07;;;;;;;12.03;7.90;;;17.40;99.90;;;;;;4998887;28;20443;-60
2021/08/13 00:33:36;;;;;;;6.63;6.03;;;17.40;99.90;;;;;;4998090;28;20489;-61
2021/08/13 00:36:03;;;;;;;11.10;7.40;;;17.20;99.90;;;;;;4998419;28;20419;-61
2021/08/13 00:38:30;;;;;;;6.20;5.70;;;17.10;99.90;;;;;;4998674;28;20506;-61
2021/08/13 00:40:57;;;;;;;9.60;7.30;;;17.00;99.90;;;;;;4998059;28;20677;-60
2021/08/13 00:43:24;;;;;;;14.47;7.23;;;16.90;99.90;;;;;;4989568;28;20456;-61
2021/08/13 00:45:51;;;;;;;8.67;7.87;;;16.90;99.90;;;;;;4997978;28;20446;-61
2021/08/13 00:48:18;;;;;;;10.40;6.80;;;16.80;99.90;;;;;;5000627;28;20470;-61
2021/08/13 00:50:45;;;;;;;7.00;6.40;;;16.80;99.90;;;;;;4998229;28;20824;-60
2021/08/13 00:53:12;;;;;;;9.50;6.90;;;16.80;99.90;;;;;;4987811;28;20554;-61
2021/08/13 00:55:40;;;;;;;9.80;6.80;;;16.80;99.90;;;;;;4997836;28;20762;-61
2021/08/13 00:58:08;;;;;;;7.60;7.00;;;16.80;99.90;;;;;;5004067;28;20435;-61
2021/08/13 01:00:36;;;;;;;8.07;6.37;;;16.80;99.90;;;;;;4993650;28;20474;-61
2021/08/13 01:03:03;;;;;;;8.97;6.03;;;16.70;99.90;;;;;;5003640;28;20444;-62
2021/08/13 01:05:31;;;;;;;8.83;6.40;;;16.70;99.90;;;;;;4992680;28;20472;-61
2021/08/13 01:07:58;;;;;;;8.60;6.57;;;16.60;99.90;;;;;;4992865;28;20456;-60
2021/08/13 01:10:25;;;;;;;8.20;7.30;;;16.60;99.90;;;;;;5008369;28;20998;-60
2021/08/13 01:13:14;;;;;;;7.10;6.40;;;16.50;99.90;;;;;;5002364;28;20638;-60
2021/08/13 01:15:50;;;;;;;7.70;6.90;;;16.50;99.90;;;;;;4989309;28;20474;-61
2021/08/13 01:18:27;;;;;;;7.10;6.43;;;16.40;99.90;;;;;;4999352;28;20481;-60
2021/08/13 01:21:22;;;;;;;8.57;6.73;;;16.50;99.90;;;;;;4999546;28;20435;-60
2021/08/13 01:23:55;;;;;;;10.07;7.20;;;16.30;99.90;;;;;;5004458;28;20437;-59
2021/08/13 01:26:25;;;;;;;8.63;7.93;;;16.40;99.90;;;;;;5004305;28;20554;-60
2021/08/13 01:29:01;;;;;;;8.53;7.07;;;16.20;99.90;;;;;;5007731;28;20462;-60
2021/08/13 01:31:35;;;;;;;8.73;7.93;;;16.30;99.90;;;;;;5002012;28;20439;-61
2021/08/13 01:34:06;;;;;;;8.40;7.40;;;16.20;99.90;;;;;;5004651;28;20486;-61
2021/08/13 01:36:34;;;;;;;8.77;7.33;;;16.20;99.90;;;;;;4996067;28;20480;-60
2021/08/13 01:39:03;;;;;;;10.17;9.23;;;16.20;99.90;;;;;;5007985;28;20706;-61
2021/08/13 01:41:38;;;;;;;12.17;6.50;;;16.20;99.90;;;;;;5002959;28;20482;-61
2021/08/13 01:44:08;;;;;;;12.40;8.13;;;16.30;99.90;;;;;;5006467;28;20672;-61
2021/08/13 01:46:38;;;;;;;8.80;8.00;;;16.20;99.90;;;;;;5033560;28;20440;-59
2021/08/13 01:49:06;;;;;;;11.77;8.67;;;16.30;99.90;;;;;;5001600;28;20440;-61
2021/08/13 01:51:33;;;;;;;9.20;8.40;;;16.20;99.90;;;;;;4995313;28;20484;-59
2021/08/13 01:54:02;;;;;;;11.37;8.27;;;16.30;99.90;;;;;;5001168;28;20541;-60
2021/08/13 01:56:30;;;;;;;11.20;8.57;;;16.20;99.90;;;;;;4998531;28;20424;-61
2021/08/13 01:58:59;;;;;;;9.73;8.73;;;16.10;99.90;;;;;;5010240;28;20572;-61
2021/08/13 02:01:31;;;;;;;8.43;7.60;;;16.00;99.90;;;;;;4993405;28;20442;-61
2021/08/13 02:04:00;;;;;;;10.73;9.23;;;16.00;99.90;;;;;;5001384;28;20661;-61
2021/08/13 02:06:32;;;;;;;9.33;8.43;;;16.00;99.90;;;;;;4997202;28;20661;-61
2021/08/13 02:09:01;;;;;;;10.40;9.30;;;16.00;99.90;;;;;;4990830;28;20463;-61
2021/08/13 02:11:28;;;;;;;12.43;8.77;;;16.00;99.90;;;;;;5000650;28;20792;-61
2021/08/13 02:13:56;;;;;;;11.00;8.43;;;16.00;99.90;;;;;;5001043;28;20456;-59
2021/08/13 02:16:30;;;;;;;18.07;8.20;;;16.00;99.90;;;;;;4992917;28;20556;-60
2021/08/13 02:19:09;;;;;;;9.47;8.60;;;16.00;99.90;;;;;;5008738;28;20719;-60
2021/08/13 02:21:38;;;;;;;13.33;8.37;;;16.10;99.90;;;;;;5008352;28;20434;-60
2021/08/13 02:24:05;;;;;;;9.70;8.60;;;16.20;99.90;;;;;;5008764;28;20495;-59
2021/08/13 02:26:32;;;;;;;9.33;8.43;;;16.20;99.90;;;;;;4994133;28;20490;-61
2021/08/13 02:29:01;;;;;;;9.00;8.07;;;16.20;99.90;;;;;;4999201;28;20487;-60
2021/08/13 02:31:29;;;;;;;9.40;8.40;;;16.10;99.90;;;;;;4987572;28;20465;-60
2021/08/13 02:33:56;;;;;;;8.23;7.50;;;16.30;99.90;;;;;;4993497;28;20820;-60
2021/08/13 02:36:34;;;;;;;8.00;7.23;;;16.10;99.90;;;;;;5008951;28;20504;-60
2021/08/13 02:39:07;;;;;;;12.13;8.50;;;16.10;99.90;;;;;;4985582;28;20757;-60
2021/08/13 02:41:36;;;;;;;9.43;7.93;;;16.00;99.90;;;;;;5000532;28;20452;-62
2021/08/13 02:44:06;;;;;;;12.70;9.10;;;16.00;99.90;;;;;;5007112;28;20608;-60
2021/08/13 02:46:42;;;;;;;10.80;9.60;;;15.90;99.90;;;;;;5007385;28;20497;-61
2021/08/13 02:49:11;;;;;;;9.47;8.27;;;16.10;99.90;;;;;;5000361;28;20449;-61
2021/08/13 02:51:40;;;;;;;10.80;9.37;;;16.00;99.90;;;;;;4988835;28;20472;-60
2021/08/13 02:54:15;;;;;;;14.70;9.60;;;16.00;99.90;;;;;;5001662;28;20544;-62
2021/08/13 02:56:43;;;;;;;9.20;8.37;;;16.10;99.90;;;;;;5005653;28;20423;-61
2021/08/13 02:59:17;;;;;;;9.90;8.20;;;16.10;99.90;;;;;;4996651;28;20755;-61
2021/08/13 03:01:45;;;;;;;11.07;9.03;;;16.10;99.90;;;;;;4981117;28;20465;-61
2021/08/13 03:04:14;;;;;;;9.70;8.70;;;16.10;99.90;;;;;;5002742;28;20613;-60
2021/08/13 03:06:43;;;;;;;10.07;9.17;;;16.10;99.90;;;;;;4987781;28;21108;-62
2021/08/13 03:09:11;;;;;;;10.03;8.30;;;16.00;99.90;;;;;;4990160;28;20897;-60
2021/08/13 03:11:41;;;;;;;11.83;9.63;;;16.00;99.90;;;;;;4983566;28;20442;-60
2021/08/13 03:14:09;;;;;;;11.97;8.87;;;16.00;99.90;;;;;;5000219;28;20477;-60
2021/08/13 03:16:37;;;;;;;11.83;8.87;;;16.00;99.90;;;;;;4999088;28;20443;-60
2021/08/13 03:19:05;;;;;;;15.70;8.90;;;16.00;99.90;;;;;;4987856;28;20478;-60
2021/08/13 03:21:32;;;;;;;18.03;8.97;;;16.00;99.90;;;;;;4995966;28;20439;-60
2021/08/13 03:24:00;;;;;;;8.30;7.30;;;16.00;99.90;;;;;;4985838;28;20485;-60
2021/08/13 03:26:27;;;;;;;16.20;10.10;;;15.90;99.90;;;;;;5011406;28;20412;-59
2021/08/13 03:28:54;;;;;;;10.23;9.23;;;15.90;99.90;;;;;;4996799;28;20469;-60
2021/08/13 03:31:41;;;;;;;10.73;9.63;;;15.70;99.90;;;;;;4999480;28;20624;-61
2021/08/13 03:34:09;;;;;;;15.00;10.00;;;15.90;99.90;;;;;;4998743;28;20239;-61
2021/08/13 03:36:37;;;;;;;10.57;9.50;;;15.70;99.90;;;;;;4999467;28;20441;-60
2021/08/13 03:39:06;;;;;;;9.70;8.80;;;15.70;99.90;;;;;;4998995;28;20450;-61
2021/08/13 03:41:34;;;;;;;10.20;8.27;;;15.80;99.90;;;;;;4999165;28;20253;-61
2021/08/13 03:44:01;;;;;;;9.93;8.97;;;15.80;99.90;;;;;;4998931;28;20491;-59
2021/08/13 03:46:28;;;;;;;22.20;9.30;;;15.80;99.90;;;;;;4990378;28;20445;-59
2021/08/13 03:48:56;;;;;;;10.77;9.67;;;15.90;99.90;;;;;;5005705;28;20474;-59
2021/08/13 03:51:23;;;;;;;10.83;9.67;;;16.10;99.90;;;;;;4979661;28;20509;-61
2021/08/13 03:53:50;;;;;;;10.10;8.83;;;15.90;99.90;;;;;;4991540;28;20565;-61
2021/08/13 03:56:17;;;;;;;13.20;8.57;;;15.90;99.90;;;;;;5011178;28;20504;-60
2021/08/13 03:58:44;;;;;;;10.67;9.53;;;16.10;99.90;;;;;;5008413;28;20446;-60
2021/08/13 04:01:11;;;;;;;9.90;8.90;;;16.10;99.90;;;;;;5015319;28;20479;-60
2021/08/13 04:03:38;;;;;;;12.17;10.63;;;16.10;99.90;;;;;;4999127;28;20446;-62
2021/08/13 04:06:05;;;;;;;12.80;9.97;;;16.20;99.90;;;;;;5011949;28;20522;-59
2021/08/13 04:08:32;;;;;;;10.03;9.07;;;16.20;99.90;;;;;;4992243;28;20807;-60
2021/08/13 04:10:59;;;;;;;14.10;10.43;;;16.40;99.90;;;;;;5004892;28;20500;-61
2021/08/13 04:13:26;;;;;;;10.97;8.60;;;16.40;99.90;;;;;;4989835;28;20873;-59
2021/08/13 04:15:53;;;;;;;11.00;10.00;;;16.70;99.90;;;;;;5006015;28;20469;-61
2021/08/13 04:18:21;;;;;;;9.80;8.80;;;16.60;99.90;;;;;;4988595;28;20464;-61
2021/08/13 04:20:48;;;;;;;13.50;12.10;;;16.60;99.90;;;;;;5008019;28;20439;-61
2021/08/13 04:23:15;;;;;;;9.80;8.90;;;16.60;99.90;;;;;;4999824;28;20508;-60
2021/08/13 04:25:42;;;;;;;11.87;9.27;;;16.70;99.90;;;;;;5000534;28;20445;-60
2021/08/13 04:28:09;;;;;;;11.13;8.53;;;16.40;99.90;;;;;;4992520;28;20458;-60
2021/08/13 04:30:36;;;;;;;11.17;10.00;;;16.50;99.90;;;;;;5004457;28;20440;-61
2021/08/13 04:33:08;;;;;;;9.43;8.63;;;16.50;99.90;;;;;;4991932;28;20482;-59
2021/08/13 04:35:35;;;;;;;11.20;9.20;;;16.40;99.90;;;;;;4991180;28;20443;-60
2021/08/13 04:38:03;;;;;;;9.87;8.90;;;16.60;99.90;;;;;;5002025;28;20441;-60
2021/08/13 04:40:31;;;;;;;10.40;9.50;;;16.70;99.90;;;;;;5025483;28;20490;-60
2021/08/13 04:42:58;;;;;;;10.90;9.20;;;16.80;99.90;;;;;;4978562;28;20793;-60
2021/08/13 04:45:25;;;;;;;12.13;10.37;;;16.80;99.90;;;;;;5010397;28;20438;-61
2021/08/13 04:47:52;;;;;;;10.30;9.30;;;16.90;99.90;;;;;;4992897;28;20783;-60
2021/08/13 04:50:20;;;;;;;14.90;11.70;;;16.80;99.90;;;;;;4981749;28;20499;-60
2021/08/13 04:52:50;;;;;;;11.00;9.90;;;17.00;99.90;;;;;;4994605;28;20462;-61
2021/08/13 04:55:19;;;;;;;11.57;10.50;;;17.20;99.90;;;;;;4987564;28;20447;-60
2021/08/13 04:57:46;;;;;;;10.10;8.43;;;17.30;99.90;;;;;;5004947;28;20471;-61
2021/08/13 05:00:14;;;;;;;9.87;8.60;;;17.40;99.90;;;;;;4986446;28;20413;-60
2021/08/13 05:02:42;;;;;;;13.40;9.07;;;17.90;99.90;;;;;;4984434;28;20444;-61
2021/08/13 05:05:09;;;;;;;10.03;9.13;;;18.00;99.90;;;;;;5009037;28;20821;-60
2021/08/13 05:07:37;;;;;;;12.30;9.07;;;18.10;99.90;;;;;;4982835;28;20530;-60
2021/08/13 05:10:15;;;;;;;9.97;8.97;;;18.10;99.90;;;;;;5004918;28;20436;-60
2021/08/13 05:12:44;;;;;;;11.00;8.70;;;18.10;99.90;;;;;;4979033;28;20674;-62
2021/08/13 05:15:11;;;;;;;9.63;8.73;;;18.00;99.90;;;;;;4978260;28;20445;-61
2021/08/13 05:17:40;;;;;;;9.80;8.80;;;18.00;99.90;;;;;;4998268;28;20445;-61
2021/08/13 05:20:09;;;;;;;9.43;8.30;;;17.90;99.90;;;;;;5005017;28;20682;-60
2021/08/13 05:22:36;;;;;;;9.63;8.73;;;17.80;99.90;;;;;;5000229;28;20414;-61
2021/08/13 05:25:08;;;;;;;9.30;8.50;;;17.90;99.90;;;;;;4993430;28;20513;-61
2021/08/13 05:27:36;;;;;;;9.47;8.53;;;18.00;99.90;;;;;;4994546;28;20439;-60
2021/08/13 05:30:04;;;;;;;9.57;8.67;;;18.00;99.90;;;;;;4996980;28;20759;-60
2021/08/13 05:32:31;;;;;;;11.57;9.20;;;18.30;99.90;;;;;;4997078;28;20866;-60
2021/08/13 05:34:58;;;;;;;10.27;8.90;;;18.50;99.90;;;;;;4999379;28;20509;-60
2021/08/13 05:37:25;;;;;;;11.23;9.00;;;18.60;99.90;;;;;;5000053;28;20442;-62
2021/08/13 05:39:52;;;;;;;11.87;10.73;;;18.60;99.90;;;;;;4999820;28;20460;-63
2021/08/13 05:42:19;;;;;;;9.17;8.30;;;18.60;99.90;;;;;;4999666;28;20824;-59
2021/08/13 05:44:46;;;;;;;10.97;9.93;;;18.50;99.90;;;;;;4997959;28;20803;-60
2021/08/13 05:47:13;;;;;;;11.17;8.67;;;18.40;99.90;;;;;;4995041;28;20472;-60
2021/08/13 05:49:40;;;;;;;10.63;8.80;;;18.60;99.90;;;;;;4989706;28;20592;-65
2021/08/13 05:52:07;;;;;;;8.90;8.10;;;18.80;99.90;;;;;;5004889;28;20413;-62
2021/08/13 05:54:34;;;;;;;8.73;8.07;;;19.00;99.90;;;;;;5010246;28;20559;-61
2021/08/13 05:57:02;;;;;;;8.87;8.07;;;19.30;99.90;;;;;;5007638;28;20656;-62
2021/08/13 05:59:29;;;;;;;13.07;10.20;;;19.40;99.90;;;;;;5030885;28;20656;-62
2021/08/13 06:01:57;;;;;;;10.00;8.40;;;19.60;99.90;;;;;;4996743;28;20414;-61
2021/08/13 06:04:24;;;;;;;8.77;7.93;;;19.90;99.90;;;;;;4997727;28;20444;-60
2021/08/13 06:06:51;;;;;;;9.57;8.53;;;20.30;99.90;;;;;;5001803;28;20473;-59
2021/08/13 06:09:18;;;;;;;9.30;8.03;;;20.80;99.90;;;;;;5004248;28;20471;-61
2021/08/13 06:11:45;;;;;;;9.50;7.97;;;21.10;99.90;;;;;;4996921;28;20479;-61
2021/08/13 06:14:12;;;;;;;7.97;7.20;;;21.40;99.90;;;;;;4988705;28;20487;-59
2021/08/13 06:16:39;;;;;;;8.80;7.90;;;21.90;99.90;;;;;;4998719;28;20617;-61
2021/08/13 06:19:06;;;;;;;7.97;7.27;;;22.30;99.90;;;;;;4992229;28;20634;-61
2021/08/13 06:21:33;;;;;;;8.93;8.10;;;22.80;99.90;;;;;;5000873;28;20471;-61
2021/08/13 06:24:00;;;;;;;9.37;8.57;;;23.40;99.90;;;;;;5005946;28;20418;-61
2021/08/13 06:26:27;;;;;;;8.50;7.73;;;24.20;99.90;;;;;;4990583;28;20423;-60
2021/08/13 06:28:54;;;;;;;8.17;7.50;;;25.20;99.90;;;;;;5001010;28;20459;-61
2021/08/13 06:31:22;;;;;;;9.43;8.70;;;26.50;99.90;;;;;;4996206;28;20661;-61
2021/08/13 06:33:50;;;;;;;8.00;7.50;;;26.90;98.70;;;;;;5001017;28;20450;-61
2021/08/13 06:36:18;;;;;;;9.37;8.50;;;28.10;96.90;;;;;;4995353;28;20504;-60
2021/08/13 06:38:46;;;;;;;9.50;8.80;;;28.70;94.90;;;;;;5005848;28;20558;-59
2021/08/13 06:41:13;;;;;;;10.13;9.13;;;29.70;92.50;;;;;;4996749;28;20435;-60
2021/08/13 06:43:40;;;;;;;16.80;10.07;;;30.30;90.70;;;;;;5002394;28;20447;-60
2021/08/13 06:46:07;;;;;;;10.27;9.37;;;30.70;89.80;;;;;;5000580;28;20805;-61
2021/08/13 06:48:34;;;;;;;11.37;10.50;;;31.20;87.20;;;;;;5000750;28;20474;-62
2021/08/13 06:51:03;;;;;;;11.73;10.87;;;31.40;84.90;;;;;;4998252;28;20762;-61
2021/08/13 06:53:31;;;;;;;10.27;9.67;;;31.70;83.10;;;;;;4990322;28;20478;-61
2021/08/13 06:55:58;;;;;;;10.27;9.57;;;32.80;78.90;;;;;;4994460;28;20442;-60
2021/08/13 06:58:25;;;;;;;12.17;11.37;;;34.00;75.00;;;;;;4990601;28;20448;-60
2021/08/13 07:00:52;;;;;;;11.67;10.70;;;34.50;71.20;;;;;;4991034;28;20515;-61
2021/08/13 07:03:19;;;;;;;10.93;10.33;;;35.50;68.70;;;;;;5000285;28;20448;-61
2021/08/13 07:05:46;;;;;;;11.30;10.50;;;36.70;64.70;;;;;;5000517;28;20483;-60
2021/08/13 07:08:13;;;;;;;11.53;10.57;;;38.10;59.60;;;;;;4999576;28;20486;-60
2021/08/13 07:10:40;;;;;;;11.40;10.50;;;37.90;58.50;;;;;;5000319;28;20657;-59
2021/08/13 07:13:07;;;;;;;12.00;10.93;;;38.50;57.00;;;;;;4999718;28;20542;-61
2021/08/13 07:15:34;;;;;;;11.60;10.87;;;39.30;55.40;;;;;;4999408;28;20436;-60
2021/08/13 07:18:02;;;;;;;11.80;11.00;;;39.20;54.00;;;;;;4985603;28;20483;-62
2021/08/13 07:20:29;;;;;;;11.27;10.57;;;39.20;53.90;;;;;;4999740;28;20439;-60
2021/08/13 07:22:56;;;;;;;11.20;10.60;;;38.50;54.20;;;;;;4999495;28;20714;-62
2021/08/13 07:25:23;;;;;;;11.80;11.20;;;38.50;55.40;;;;;;4986482;28;20669;-61
2021/08/13 07:27:50;;;;;;;12.00;11.30;;;40.00;53.00;;;;;;5003044;28;20431;-61
2021/08/13 07:30:19;;;;;;;12.23;11.47;;;40.30;50.90;;;;;;4996101;28;20439;-59
2021/08/13 07:32:46;;;;;;;11.40;10.90;;;40.80;50.50;;;;;;5002507;28;20451;-61
2021/08/13 07:35:14;;;;;;;11.47;10.87;;;41.30;49.70;;;;;;4999322;28;20483;-60
2021/08/13 07:37:41;;;;;;;11.77;10.97;;;41.20;48.90;;;;;;4999672;28;20435;-61
2021/08/13 07:40:09;;;;;;;11.10;10.50;;;41.00;48.80;;;;;;4999574;28;20510;-62
2021/08/13 07:42:36;;;;;;;11.00;10.30;;;41.20;48.30;;;;;;4999191;28;20440;-62
2021/08/13 07:45:04;;;;;;;12.13;11.63;;;41.60;48.10;;;;;;4994105;28;20947;-62
2021/08/13 07:47:31;;;;;;;11.47;10.97;;;42.00;47.50;;;;;;5001936;28;21009;-63
2021/08/13 07:49:59;;;;;;;11.90;11.30;;;42.40;46.60;;;;;;5010438;28;20439;-62
2021/08/13 07:52:26;;;;;;;12.87;12.17;;;42.40;46.30;;;;;;5011794;28;20501;-61
2021/08/13 07:54:54;;;;;;;12.13;11.47;;;42.60;45.40;;;;;;4993436;28;20474;-62
2021/08/13 07:57:21;;;;;;;12.60;11.63;;;42.40;45.50;;;;;;5018361;28;20481;-62
2021/08/13 07:59:49;;;;;;;12.50;11.80;;;43.10;45.20;;;;;;4980375;28;20440;-62
2021/08/13 08:02:19;;;;;;;12.90;12.20;;;44.30;43.50;;;;;;4969268;28;20510;-61
2021/08/13 08:04:52;;;;;;;11.23;10.73;;;44.80;41.20;;;;;;4998810;28;20472;-63
2021/08/13 08:07:21;;;;;;;12.10;11.50;;;44.10;42.80;;;;;;4974557;28;20488;-62
2021/08/13 08:09:48;;;;;;;11.53;11.03;;;44.30;41.80;;;;;;5011095;28;20809;-63
2021/08/13 08:12:15;;;;;;;13.50;12.70;;;44.00;41.70;;;;;;4987113;28;20839;-62
2021/08/13 08:14:42;;;;;;;11.53;10.87;;;43.80;42.10;;;;;;4980249;28;20861;-60
2021/08/13 08:17:09;;;;;;;11.87;11.33;;;43.00;43.10;;;;;;4981088;28;20440;-62
2021/08/13 08:19:36;;;;;;;11.83;11.23;;;43.10;42.10;;;;;;4978764;28;20500;-62
2021/08/13 08:22:04;;;;;;;12.80;12.20;;;43.20;41.80;;;;;;4979040;28;20479;-61
2021/08/13 08:24:31;;;;;;;12.47;11.73;;;43.70;41.00;;;;;;4978909;28;20492;-61
2021/08/13 08:26:58;;;;;;;13.30;12.60;;;44.20;41.00;;;;;;4981173;28;20467;-62
2021/08/13 08:29:25;;;;;;;13.00;12.40;;;44.60;40.60;;;;;;4980189;28;20519;-62
2021/08/13 08:31:52;;;;;;;11.83;11.23;;;42.70;41.70;;;;;;4993445;28;20814;-62
2021/08/13 08:34:19;;;;;;;12.80;12.10;;;43.40;41.50;;;;;;4995703;28;20729;-61
2021/08/13 08:36:46;;;;;;;13.50;12.83;;;44.90;40.60;;;;;;5013879;28;20497;-62
2021/08/13 08:39:13;;;;;;;13.80;13.20;;;45.90;39.50;;;;;;5015317;28;20459;-61
2021/08/13 08:41:43;;;;;;;12.57;11.93;;;46.10;38.50;;;;;;4986402;28;20557;-62
2021/08/13 08:44:11;;;;;;;13.83;13.03;;;46.10;37.30;;;;;;4995260;28;20441;-62
2021/08/13 08:46:39;;;;;;;12.30;11.73;;;45.60;37.70;;;;;;5004861;28;20440;-62
2021/08/13 08:49:07;;;;;;;12.90;12.20;;;45.40;38.70;;;;;;5011379;28;20445;-62
2021/08/13 08:51:37;;;;;;;12.90;12.20;;;46.20;38.20;;;;;;4994359;28;20704;-62
2021/08/13 08:54:04;;;;;;;12.70;12.20;;;47.10;37.50;;;;;;5001823;28;20482;-61
2021/08/13 08:56:32;;;;;;;13.83;12.83;;;45.20;38.90;;;;;;4982849;28;20632;-62
2021/08/13 08:59:00;;;;;;;14.20;13.57;;;46.00;37.90;;;;;;4978818;28;20436;-62
2021/08/13 09:01:27;;;;;;;12.40;11.90;;;45.60;38.10;;;;;;4980598;28;20448;-62
2021/08/13 09:03:54;;;;;;;12.70;12.10;;;44.70;38.70;;;;;;4978529;28;20433;-64
2021/08/13 09:06:22;;;;;;;13.57;13.00;;;45.40;37.70;;;;;;4982160;28;20657;-61
2021/08/13 09:08:50;;;;;;;13.80;13.10;;;46.10;36.20;;;;;;4980107;28;20436;-62
2021/08/13 09:11:19;;;;;;;12.40;11.77;;;47.30;35.10;;;;;;4991085;28;20443;-62
2021/08/13 09:14:18;;;;;;;12.50;11.80;;;46.30;35.50;;;;;;4993087;28;20436;-62
2021/08/13 09:17:02;;;;;;;11.27;10.77;;;45.00;36.40;;;;;;4995963;28;20447;-62
2021/08/13 09:19:41;;;;;;;12.30;11.80;;;44.90;35.40;;;;;;4994199;28;20719;-63
2021/08/13 09:22:16;;;;;;;13.43;12.67;;;45.60;35.30;;;;;;4983072;28;20657;-62
2021/08/13 09:24:47;;;;;;;13.33;12.73;;;46.40;35.10;;;;;;4984538;28;20511;-62
2021/08/13 09:27:26;;;;;;;10.83;10.33;;;46.20;34.70;;;;;;4981397;28;20444;-62
2021/08/13 09:30:05;;;;;;;11.93;11.43;;;44.90;34.70;;;;;;4989070;28;20464;-62
2021/08/13 09:32:33;;;;;;;12.03;11.43;;;42.80;36.30;;;;;;4997672;28;20501;-63
2021/08/13 09:35:02;;;;;;;12.50;11.43;;;41.30;39.90;;;;;;4998151;28;20825;-63
2021/08/13 09:37:29;;;;;;;11.63;11.13;;;39.20;42.40;;;;;;4998769;28;20750;-61
2021/08/13 09:39:57;;;;;;;11.50;10.90;;;37.40;44.70;;;;;;4995251;28;20486;-62
2021/08/13 09:42:36;;;;;;;10.70;10.10;;;36.00;47.10;;;;;;4995444;28;20754;-63
2021/08/13 09:45:08;;;;;;;11.10;10.60;;;34.70;50.10;;;;;;4990223;28;20489;-61
2021/08/13 09:47:46;;;;;;;10.07;9.60;;;33.80;51.10;;;;;;5000265;28;20438;-63
2021/08/13 09:50:16;;;;;;;12.70;10.87;;;32.60;53.90;;;;;;5020527;28;20513;-62
2021/08/13 09:53:04;;;;;;;11.87;11.03;;;32.10;55.50;;;;;;4998750;28;20482;-63
2021/08/13 09:55:32;;;;;;;11.20;10.37;;;31.70;55.70;;;;;;4999149;28;20929;-64
2021/08/13 09:57:59;;;;;;;9.33;8.73;;;31.30;56.40;;;;;;4989402;28;20501;-61
2021/08/13 10:00:26;;;;;;;10.40;9.80;;;31.20;56.60;;;;;;5019825;28;20438;-63
2021/08/13 10:03:07;;;;;;;9.13;8.63;;;31.20;56.10;;;;;;4992973;28;20721;-63
2021/08/13 10:05:35;;;;;;;9.80;9.10;;;31.40;57.00;;;;;;5001764;28;20471;-62
2021/08/13 10:08:05;;;;;;;9.40;8.80;;;31.40;57.80;;;;;;4989698;28;20509;-63
2021/08/13 10:10:32;;;;;;;8.37;7.77;;;31.30;57.30;;;;;;4981636;28;20565;-64
2021/08/13 10:13:00;;;;;;;9.90;9.30;;;31.20;56.50;;;;;;4985531;28;20459;-62
2021/08/13 10:15:44;;;;;;;9.63;9.03;;;31.10;57.40;;;;;;4984945;28;20569;-64
2021/08/13 10:18:14;;;;;;;8.60;7.80;;;31.10;56.20;;;;;;4992515;28;20454;-62
2021/08/13 10:20:43;;;;;;;9.57;8.97;;;30.90;56.70;;;;;;5012823;28;20544;-62
2021/08/13 10:23:12;;;;;;;8.83;8.27;;;30.70;57.10;;;;;;4986513;28;20510;-62
2021/08/13 10:25:40;;;;;;;9.20;8.60;;;30.70;57.40;;;;;;4983620;28;20492;-62
2021/08/13 10:28:07;;;;;;;8.67;8.17;;;30.90;58.10;;;;;;4991194;28;20462;-61
2021/08/13 10:30:35;;;;;;;9.30;8.80;;;30.90;57.70;;;;;;5011544;28;20487;-64
2021/08/13 10:33:07;;;;;;;9.73;9.23;;;30.70;57.80;;;;;;5009237;28;20436;-63
2021/08/13 10:35:49;;;;;;;9.00;8.50;;;30.60;58.50;;;;;;4988922;28;21131;-63
2021/08/13 10:38:18;;;;;;;9.10;8.50;;;30.80;59.00;;;;;;4999879;28;20525;-63
2021/08/13 10:40:47;;;;;;;9.17;8.60;;;30.80;58.50;;;;;;4986217;28;20508;-63
2021/08/13 10:43:15;;;;;;;8.63;8.03;;;31.00;57.70;;;;;;4994736;28;20442;-62
2021/08/13 10:45:46;;;;;;;9.40;8.80;;;30.90;57.10;;;;;;5004715;28;20877;-62
2021/08/13 10:48:23;;;;;;;10.40;9.70;;;30.40;58.60;;;;;;4988057;28;20452;-63
2021/08/13 10:50:56;;;;;;;8.03;7.53;;;30.00;59.30;;;;;;4984467;28;20496;-62
2021/08/13 10:53:31;;;;;;;9.87;9.07;;;29.80;59.40;;;;;;5009367;28;20440;-63
2021/08/13 10:56:00;;;;;;;8.40;7.90;;;30.00;59.60;;;;;;4981258;28;20563;-64
2021/08/13 10:58:36;;;;;;;8.70;8.20;;;30.50;59.50;;;;;;4980939;28;20445;-63
2021/08/13 11:01:11;;;;;;;8.50;8.00;;;30.50;58.20;;;;;;4994906;28;20699;-61
2021/08/13 11:04:01;;;;;;;8.70;8.10;;;30.70;59.20;;;;;;4988824;28;20447;-63
2021/08/13 11:06:38;;;;;;;8.80;8.03;;;30.80;58.60;;;;;;4983982;28;20717;-63
2021/08/13 11:09:35;;;;;;;8.90;8.40;;;30.60;58.30;;;;;;4982678;28;20583;-63
2021/08/13 11:12:15;;;;;;;7.93;7.53;;;30.60;58.20;;;;;;5012599;28;20494;-62
2021/08/13 11:14:47;;;;;;;9.40;8.80;;;30.60;59.20;;;;;;4980236;28;20812;-63
2021/08/13 11:17:32;;;;;;;8.70;8.20;;;30.60;59.00;;;;;;4982262;28;20712;-64
2021/08/13 11:20:02;;;;;;;7.83;7.33;;;30.70;58.80;;;;;;4983960;28;20591;-62
2021/08/13 11:22:32;;;;;;;8.03;7.53;;;30.50;59.60;;;;;;4992580;28;20447;-62
2021/08/13 11:24:59;;;;;;;8.40;7.87;;;30.30;60.20;;;;;;4997149;28;20540;-63
2021/08/13 11:27:26;;;;;;;8.63;8.23;;;30.40;59.40;;;;;;4990420;28;20450;-61
2021/08/13 11:29:53;;;;;;;9.00;8.40;;;30.50;59.50;;;;;;4994240;28;20537;-62
2021/08/13 11:32:23;;;;;;;9.07;8.60;;;30.70;59.10;;;;;;4998008;28;20505;-62
2021/08/13 11:34:53;;;;;;;9.80;9.20;;;30.70;57.80;;;;;;4995838;28;20512;-61
2021/08/13 11:37:38;;;;;;;8.60;8.10;;;30.70;58.20;;;;;;4991273;28;20438;-62
2021/08/13 11:40:07;;;;;;;9.97;9.47;;;30.60;59.60;;;;;;4990544;28;20430;-62
2021/08/13 11:42:35;;;;;;;8.43;7.87;;;30.80;58.60;;;;;;4995340;28;20755;-63
2021/08/13 11:45:06;;;;;;;9.27;8.67;;;31.00;58.00;;;;;;4994156;28;20508;-63
2021/08/13 11:47:34;;;;;;;9.40;8.80;;;31.20;57.80;;;;;;4985689;28;20511;-61
2021/08/13 11:50:08;;;;;;;8.80;8.33;;;31.20;57.60;;;;;;4989703;28;20439;-61
2021/08/13 11:52:36;;;;;;;8.70;8.20;;;31.20;57.80;;;;;;4997075;28;20776;-62
2021/08/13 11:55:27;;;;;;;8.77;8.27;;;31.10;57.70;;;;;;4993373;28;20533;-61
2021/08/13 11:58:03;;;;;;;9.57;8.77;;;31.00;57.20;;;;;;4995765;28;20728;-66
2021/08/13 12:00:40;;;;;;;9.30;8.60;;;31.10;57.30;;;;;;4998590;28;20527;-61
2021/08/13 12:03:09;;;;;;;8.77;8.27;;;31.20;57.10;;;;;;4991407;28;20428;-62
2021/08/13 12:05:41;;;;;;;9.37;8.77;;;31.40;56.80;;;;;;4982584;28;20500;-61
2021/08/13 12:08:13;;;;;;;9.90;9.17;;;31.40;56.20;;;;;;4984786;28;20438;-62
2021/08/13 12:10:49;;;;;;;9.00;8.50;;;31.60;56.20;;;;;;4998174;28;20447;-61
2021/08/13 12:13:16;;;;;;;9.53;8.90;;;31.50;56.20;;;;;;4993369;28;20418;-61
2021/08/13 12:15:44;;;;;;;10.30;9.30;;;31.50;56.70;;;;;;5005897;28;20501;-63
2021/08/13 12:18:12;;;;;;;11.70;8.67;;;31.50;56.30;;;;;;5000510;28;20513;-61
2021/08/13 12:20:46;;;;;;;10.07;9.37;;;31.60;55.70;;;;;;4997952;28;20758;-61
2021/08/13 12:23:13;;;;;;;8.67;8.17;;;31.50;55.30;;;;;;4993376;28;20479;-61
2021/08/13 12:25:42;;;;;;;9.63;9.03;;;31.60;55.20;;;;;;4993180;28;20446;-61
2021/08/13 12:28:12;;;;;;;8.40;7.70;;;31.70;55.60;;;;;;5001287;28;20502;-61
2021/08/13 12:30:39;;;;;;;9.60;8.80;;;31.80;55.60;;;;;;4997824;28;20443;-62
2021/08/13 12:33:17;;;;;;;9.63;8.93;;;31.70;55.60;;;;;;5002381;28;20446;-62
2021/08/13 12:35:46;;;;;;;8.97;8.47;;;31.50;55.50;;;;;;5002727;28;20800;-63
2021/08/13 12:38:15;;;;;;;9.57;8.97;;;31.40;56.40;;;;;;4998038;28;20730;-62
2021/08/13 12:40:50;;;;;;;8.50;8.03;;;31.50;56.20;;;;;;4989397;28;20485;-61
2021/08/13 12:43:18;;;;;;;10.00;9.10;;;31.30;55.20;;;;;;4988203;28;20447;-62
2021/08/13 12:45:51;;;;;;;9.80;9.20;;;31.30;56.00;;;;;;4987244;28;20454;-63
2021/08/13 12:48:20;;;;;;;9.30;8.80;;;31.30;54.70;;;;;;4991647;28;20753;-61
2021/08/13 12:50:57;;;;;;;9.87;9.27;;;31.30;56.00;;;;;;4993323;28;20446;-62